Time;durP1;ratioP1;P1;durP2;ratioP2;P2;SDS_P1;SDS_P2;PMS_P1;PMS_P2;Temp;Humidity;BMP_temperature;BMP_pressure;BME280_temperature;BME280_humidity;BME280_pressure;Samples;Min_cycle;Max_cycle;Signal;HPM_P1;HPM_P2
2022/01/05 00:00:43;;;;;;;4.50;1.35;;;26.50;99.90;;;;;;5130963;27;20362;-80
2022/01/05 00:03:10;;;;;;;3.08;1.13;;;26.60;99.90;;;;;;5130912;27;20373;-79
2022/01/05 00:05:37;;;;;;;3.80;1.10;;;26.80;99.90;;;;;;5129856;27;20851;-78
2022/01/05 00:08:04;;;;;;;3.38;1.13;;;26.80;99.90;;;;;;5130881;27;20388;-76
2022/01/05 00:10:31;;;;;;;3.47;1.15;;;26.90;99.90;;;;;;5131049;27;20924;-75
2022/01/05 00:12:58;;;;;;;4.53;1.10;;;26.90;99.90;;;;;;5112402;27;20381;-76
2022/01/05 00:15:25;;;;;;;3.47;1.17;;;27.00;99.90;;;;;;5130735;27;20379;-80
2022/01/05 00:17:52;;;;;;;3.70;1.40;;;27.10;99.90;;;;;;5130792;27;20357;-81
2022/01/05 00:20:20;;;;;;;5.00;1.52;;;27.00;99.90;;;;;;5130710;27;20369;-81
2022/01/05 00:22:46;;;;;;;4.32;1.55;;;26.80;99.90;;;;;;5130663;27;20361;-80
2022/01/05 00:25:13;;;;;;;2.90;1.27;;;26.80;99.90;;;;;;5130753;27;20434;-79
2022/01/05 00:27:40;;;;;;;4.80;1.52;;;27.00;99.90;;;;;;5130611;27;20453;-80
2022/01/05 00:30:08;;;;;;;4.93;1.60;;;27.10;99.90;;;;;;5130542;27;20373;-80
2022/01/05 00:32:35;;;;;;;7.83;2.17;;;26.80;99.90;;;;;;5130272;27;20456;-78
2022/01/05 00:35:02;;;;;;;5.95;1.50;;;26.80;99.90;;;;;;5130261;27;20364;-80
2022/01/05 00:37:29;;;;;;;5.20;1.70;;;27.00;99.90;;;;;;5130395;27;20358;-77
2022/01/05 00:39:56;;;;;;;5.13;1.50;;;27.30;99.90;;;;;;5130107;27;20374;-79
2022/01/05 00:42:24;;;;;;;5.53;1.60;;;27.70;99.90;;;;;;5130147;27;20369;-78
2022/01/05 00:44:51;;;;;;;4.22;1.33;;;28.10;99.90;;;;;;5130306;27;20426;-77
2022/01/05 00:47:18;;;;;;;3.28;1.20;;;28.50;99.90;;;;;;5130296;27;20834;-80
2022/01/05 00:49:45;;;;;;;3.75;1.30;;;28.60;99.90;;;;;;5129991;27;20453;-80
2022/01/05 00:52:13;;;;;;;4.95;1.50;;;28.60;99.90;;;;;;5130064;27;20379;-79
2022/01/05 00:54:41;;;;;;;4.28;1.50;;;28.40;99.20;;;;;;5130172;27;20380;-79
2022/01/05 00:57:08;;;;;;;4.80;1.50;;;28.20;99.80;;;;;;5130116;27;20364;-77
2022/01/05 00:59:35;;;;;;;6.57;1.60;;;27.90;99.90;;;;;;5130667;27;20380;-80
2022/01/05 01:02:02;;;;;;;5.05;1.40;;;28.00;99.90;;;;;;5129961;27;20370;-80
2022/01/05 01:04:29;;;;;;;3.63;1.38;;;28.60;99.90;;;;;;5130661;27;20460;-81
2022/01/05 01:06:56;;;;;;;3.33;1.15;;;29.00;99.70;;;;;;5129842;27;20779;-80
2022/01/05 01:09:23;;;;;;;3.92;1.33;;;28.90;97.90;;;;;;5129748;27;20399;-78
2022/01/05 01:11:50;;;;;;;4.15;1.40;;;28.40;98.20;;;;;;5129316;27;20393;-81
2022/01/05 01:14:17;;;;;;;5.18;1.48;;;27.90;99.90;;;;;;5129504;27;20384;-79
2022/01/05 01:16:44;;;;;;;4.72;1.50;;;27.60;99.90;;;;;;5129466;27;20361;-78
2022/01/05 01:19:11;;;;;;;4.50;1.30;;;27.60;99.90;;;;;;5129760;27;20857;-77
2022/01/05 01:21:38;;;;;;;5.72;1.70;;;27.60;99.90;;;;;;5129623;27;20884;-82
2022/01/05 01:24:06;;;;;;;6.43;1.58;;;27.10;99.90;;;;;;5129613;27;20498;-83
2022/01/05 01:26:33;;;;;;;7.20;1.90;;;26.70;99.90;;;;;;5129557;27;20361;-80
2022/01/05 01:29:01;;;;;;;7.00;2.00;;;26.20;99.90;;;;;;5129335;27;20397;-79
2022/01/05 01:31:28;;;;;;;7.15;1.95;;;25.60;99.90;;;;;;5129445;27;20387;-77
2022/01/05 01:33:56;;;;;;;7.15;2.08;;;25.10;99.90;;;;;;5129395;27;20369;-79
2022/01/05 01:36:23;;;;;;;4.87;1.53;;;24.70;99.90;;;;;;5129481;27;20369;-83
2022/01/05 01:38:50;;;;;;;6.23;1.53;;;24.20;99.90;;;;;;5129794;27;20396;-83
2022/01/05 01:41:17;;;;;;;6.88;1.70;;;23.90;99.90;;;;;;5129398;27;20435;-81
2022/01/05 01:43:44;;;;;;;6.03;1.77;;;23.70;99.90;;;;;;5129648;27;20808;-82
2022/01/05 01:46:11;;;;;;;4.25;1.50;;;23.50;99.90;;;;;;5129264;27;20879;-82
2022/01/05 01:48:38;;;;;;;4.82;1.25;;;23.50;99.90;;;;;;5128986;27;20401;-84
2022/01/05 01:51:05;;;;;;;4.70;1.50;;;23.50;99.90;;;;;;5129237;27;20464;-80
2022/01/05 01:53:32;;;;;;;4.43;1.55;;;23.50;99.90;;;;;;5129137;27;20383;-80
2022/01/05 01:56:00;;;;;;;5.28;1.70;;;23.40;99.90;;;;;;5128988;27;20444;-81
2022/01/05 01:58:33;;;;;;;4.95;1.63;;;23.50;99.90;;;;;;5128885;27;20411;-84
2022/01/05 02:01:01;;;;;;;5.50;1.55;;;23.50;99.90;;;;;;5128707;27;20368;-82
2022/01/05 02:03:29;;;;;;;6.65;1.75;;;23.70;99.90;;;;;;5129292;27;20365;-82
2022/01/05 02:05:56;;;;;;;5.93;1.52;;;23.90;99.90;;;;;;5128785;27;20384;-83
2022/01/05 02:08:24;;;;;;;7.18;1.75;;;24.10;99.90;;;;;;5128807;28;20757;-80
2022/01/05 02:10:51;;;;;;;5.15;1.50;;;24.40;99.90;;;;;;5128915;28;20372;-77
2022/01/05 02:13:18;;;;;;;5.03;1.70;;;24.70;99.90;;;;;;5128771;28;20381;-78
2022/01/05 02:15:45;;;;;;;7.00;1.98;;;25.10;99.90;;;;;;5129607;28;20834;-81
2022/01/05 02:18:58;;;;;;;6.00;1.90;;;25.40;99.90;;;;;;5128833;28;20373;-83
2022/01/05 02:21:06;;;;;;;4.63;1.58;;;25.60;99.90;;;;;;5118017;28;20377;-83
2022/01/05 02:23:37;;;;;;;5.75;1.70;;;25.80;99.90;;;;;;5128771;28;20365;-81
2022/01/05 02:26:06;;;;;;;4.20;1.30;;;26.00;99.90;;;;;;5128933;28;20370;-86
2022/01/05 02:28:33;;;;;;;6.47;1.60;;;26.10;99.90;;;;;;5132078;27;20392;-78
2022/01/05 02:31:03;;;;;;;5.30;1.70;;;26.00;99.90;;;;;;5133195;27;20377;-80
2022/01/05 02:33:31;;;;;;;6.63;1.70;;;25.90;99.90;;;;;;5132635;27;20364;-82
2022/01/05 02:35:58;;;;;;;6.88;1.70;;;25.60;99.90;;;;;;5132871;27;20417;-81
2022/01/05 02:38:25;;;;;;;6.28;1.80;;;25.30;99.90;;;;;;5132701;27;20444;-77
2022/01/05 02:40:53;;;;;;;7.90;1.92;;;25.10;99.90;;;;;;5132694;27;20384;-84
2022/01/05 02:43:20;;;;;;;7.50;1.90;;;24.90;99.90;;;;;;5132584;27;20373;-84
2022/01/05 02:45:47;;;;;;;6.72;2.08;;;24.90;99.90;;;;;;5132647;27;20403;-86
2022/01/05 02:48:15;;;;;;;7.57;2.30;;;24.80;99.90;;;;;;5132357;27;20407;-83
2022/01/05 02:50:42;;;;;;;7.53;2.33;;;24.80;99.90;;;;;;5132577;27;20369;-86
2022/01/05 02:53:09;;;;;;;8.75;2.10;;;24.80;99.90;;;;;;5133580;27;20384;-80
2022/01/05 02:55:36;;;;;;;6.90;2.00;;;25.10;99.90;;;;;;5114545;27;20365;-82
2022/01/05 02:58:03;;;;;;;4.93;1.50;;;25.40;99.90;;;;;;5132414;27;20480;-85
2022/01/05 03:00:31;;;;;;;3.30;1.20;;;25.60;99.90;;;;;;5132420;27;20365;-84
2022/01/05 03:02:57;;;;;;;6.93;1.60;;;26.00;99.90;;;;;;5132244;27;20380;-85
2022/01/05 03:05:25;;;;;;;4.90;1.50;;;26.50;99.90;;;;;;5114200;27;20357;-88
2022/01/05 03:07:52;;;;;;;6.83;1.90;;;26.80;99.90;;;;;;5132246;27;20377;-79
2022/01/05 03:10:19;;;;;;;6.97;2.00;;;27.00;99.90;;;;;;5132188;27;20809;-83
2022/01/05 03:12:46;;;;;;;7.03;2.00;;;27.30;99.90;;;;;;5131943;27;20378;-81
2022/01/05 03:15:13;;;;;;;7.70;2.33;;;27.40;99.90;;;;;;5132252;27;20477;-84
2022/01/05 03:17:40;;;;;;;8.30;2.20;;;27.40;99.90;;;;;;5131986;27;20372;-81
2022/01/05 03:20:09;;;;;;;8.82;2.40;;;27.30;99.90;;;;;;5132027;27;20369;-84
2022/01/05 03:22:37;;;;;;;8.48;2.40;;;27.30;99.90;;;;;;5131915;27;20361;-76
2022/01/05 03:25:05;;;;;;;11.15;2.50;;;27.20;99.90;;;;;;5131908;27;20787;-75
2022/01/05 03:27:32;;;;;;;9.40;2.42;;;27.00;99.90;;;;;;5131976;27;20369;-80
2022/01/05 03:29:59;;;;;;;10.68;2.83;;;26.90;99.90;;;;;;5131631;27;20397;-82
2022/01/05 03:32:33;;;;;;;8.70;2.58;;;26.70;99.90;;;;;;5131692;27;20369;-78
2022/01/05 03:35:00;;;;;;;8.55;2.50;;;26.50;99.90;;;;;;5131692;27;20373;-75
2022/01/05 03:37:27;;;;;;;10.57;2.80;;;26.30;99.90;;;;;;5131868;27;20373;-76
2022/01/05 03:39:54;;;;;;;8.87;2.60;;;26.20;99.90;;;;;;5130141;27;20398;-76
2022/01/05 03:42:21;;;;;;;11.50;2.83;;;26.10;99.90;;;;;;5132106;27;20444;-78
2022/01/05 03:44:48;;;;;;;11.55;2.60;;;26.00;99.90;;;;;;5131401;27;20461;-76
2022/01/05 03:47:15;;;;;;;10.35;2.80;;;25.90;99.90;;;;;;5131380;27;20766;-74
2022/01/05 03:49:42;;;;;;;9.65;3.10;;;25.90;99.90;;;;;;5131356;27;20899;-85
2022/01/05 03:52:09;;;;;;;12.63;3.00;;;25.90;99.90;;;;;;5113063;27;20380;-77
2022/01/05 03:54:36;;;;;;;12.45;3.30;;;25.90;99.90;;;;;;5131460;27;20373;-76
2022/01/05 03:57:03;;;;;;;11.33;3.13;;;25.90;99.90;;;;;;5131356;27;20820;-79
2022/01/05 03:59:30;;;;;;;8.27;2.70;;;25.70;99.90;;;;;;5131264;27;20466;-79
2022/01/05 04:01:57;;;;;;;6.75;1.95;;;25.60;99.90;;;;;;5131199;27;20365;-80
2022/01/05 04:04:25;;;;;;;5.00;1.60;;;25.40;99.90;;;;;;5131045;27;20433;-76
2022/01/05 04:06:52;;;;;;;6.82;1.52;;;25.10;99.90;;;;;;5113120;27;20365;-77
2022/01/05 04:09:19;;;;;;;4.55;1.30;;;24.80;99.90;;;;;;5131207;27;20401;-78
2022/01/05 04:11:46;;;;;;;3.75;1.30;;;24.60;99.90;;;;;;5130886;27;20361;-77
2022/01/05 04:14:13;;;;;;;3.10;1.20;;;24.40;99.90;;;;;;5130915;27;20880;-74
2022/01/05 04:16:40;;;;;;;5.47;1.27;;;24.20;99.90;;;;;;5131029;27;20365;-77
2022/01/05 04:19:10;;;;;;;4.57;1.30;;;24.10;99.90;;;;;;5130889;27;20438;-77
2022/01/05 04:21:37;;;;;;;5.53;1.27;;;24.00;99.90;;;;;;5130540;27;20372;-80
2022/01/05 04:24:04;;;;;;;3.17;1.17;;;24.00;99.90;;;;;;5130546;27;20385;-80
2022/01/05 04:26:31;;;;;;;3.50;1.20;;;23.80;99.90;;;;;;5130774;27;20372;-74
2022/01/05 04:28:58;;;;;;;3.65;1.00;;;23.80;99.90;;;;;;5130538;27;20883;-76
2022/01/05 04:31:25;;;;;;;3.28;0.90;;;23.70;99.90;;;;;;5130562;27;20369;-77
2022/01/05 04:33:52;;;;;;;3.35;1.15;;;23.60;99.90;;;;;;5130761;27;20380;-77
2022/01/05 04:36:19;;;;;;;1.92;0.80;;;23.50;99.90;;;;;;5130349;27;20410;-77
2022/01/05 04:38:46;;;;;;;4.57;1.08;;;23.40;99.90;;;;;;5130371;27;20380;-74
2022/01/05 04:41:13;;;;;;;4.32;1.27;;;23.30;99.90;;;;;;5130093;27;20808;-77
2022/01/05 04:43:40;;;;;;;4.00;1.30;;;23.10;99.90;;;;;;5130248;27;20400;-78
2022/01/05 04:46:07;;;;;;;2.65;0.90;;;22.90;99.90;;;;;;5130251;27;20871;-74
2022/01/05 04:48:34;;;;;;;3.15;1.13;;;22.90;99.90;;;;;;5130372;27;20884;-76
2022/01/05 04:51:01;;;;;;;3.60;1.00;;;22.80;99.90;;;;;;5129720;27;20361;-78
2022/01/05 04:53:28;;;;;;;3.70;1.20;;;22.70;99.90;;;;;;5130224;27;20388;-79
2022/01/05 04:55:55;;;;;;;2.30;0.93;;;22.60;99.90;;;;;;5130198;27;20373;-76
2022/01/05 04:58:22;;;;;;;5.72;1.10;;;22.60;99.90;;;;;;5130123;27;20409;-78
2022/01/05 05:00:49;;;;;;;2.07;0.83;;;22.60;99.90;;;;;;5129979;27;20460;-83
2022/01/05 05:03:16;;;;;;;4.00;0.98;;;22.60;99.90;;;;;;5129848;27;20430;-82
2022/01/05 05:05:42;;;;;;;2.88;1.00;;;22.60;99.90;;;;;;5129962;27;20361;-78
2022/01/05 05:08:09;;;;;;;3.95;1.20;;;22.60;99.90;;;;;;5129982;27;20391;-78
2022/01/05 05:10:37;;;;;;;3.40;1.00;;;22.70;99.90;;;;;;5129893;27;20882;-83
2022/01/05 05:13:11;;;;;;;3.67;1.10;;;22.60;99.90;;;;;;5129705;27;20374;-81
2022/01/05 05:15:38;;;;;;;3.17;1.20;;;22.70;99.90;;;;;;5129719;27;20755;-83
2022/01/05 05:18:06;;;;;;;3.63;1.30;;;22.70;99.90;;;;;;5129651;27;20373;-76
2022/01/05 05:20:33;;;;;;;4.05;1.50;;;22.80;99.90;;;;;;5129628;27;20901;-82
2022/01/05 05:23:02;;;;;;;4.45;1.40;;;23.00;99.90;;;;;;5129540;27;20384;-77
2022/01/05 05:25:30;;;;;;;3.60;1.30;;;23.20;99.90;;;;;;5129450;27;20369;-82
2022/01/05 05:27:57;;;;;;;4.63;1.10;;;23.50;99.90;;;;;;5129834;27;20871;-82
2022/01/05 05:30:24;;;;;;;3.23;1.10;;;23.70;99.90;;;;;;5129539;27;20473;-76
2022/01/05 05:32:54;;;;;;;2.95;1.10;;;23.90;99.90;;;;;;5129447;27;20361;-77
2022/01/05 05:35:22;;;;;;;4.60;1.20;;;24.50;99.90;;;;;;5129466;27;20373;-78
2022/01/05 05:37:49;;;;;;;3.95;1.10;;;25.30;99.90;;;;;;5129321;27;20369;-79
2022/01/05 05:40:16;;;;;;;4.00;1.30;;;25.90;99.90;;;;;;5110832;28;20450;-82
2022/01/05 05:42:43;;;;;;;4.05;1.08;;;26.20;99.90;;;;;;5129476;27;20362;-77
2022/01/05 05:45:11;;;;;;;4.75;1.38;;;26.30;99.90;;;;;;5129279;27;20369;-78
2022/01/05 05:47:38;;;;;;;3.23;1.33;;;26.20;99.90;;;;;;5129407;27;20365;-79
2022/01/05 05:50:10;;;;;;;3.65;1.17;;;26.10;99.90;;;;;;5128433;27;20423;-82
2022/01/05 05:52:37;;;;;;;4.38;1.10;;;26.20;99.90;;;;;;5128882;27;20440;-81
2022/01/05 05:55:04;;;;;;;3.80;1.13;;;26.30;99.90;;;;;;5128976;27;20713;-79
2022/01/05 05:57:31;;;;;;;4.28;1.17;;;26.30;99.90;;;;;;5129395;27;20369;-83
2022/01/05 05:59:58;;;;;;;3.15;1.25;;;26.40;99.90;;;;;;5129232;27;20459;-82
2022/01/05 06:02:25;;;;;;;4.05;1.27;;;26.50;99.90;;;;;;5128095;27;20467;-84
2022/01/05 06:04:52;;;;;;;4.78;1.40;;;26.50;99.90;;;;;;5128922;27;20426;-83
2022/01/05 06:07:19;;;;;;;4.85;1.30;;;26.40;99.90;;;;;;5128997;27;20369;-86
2022/01/05 06:09:46;;;;;;;4.47;1.30;;;26.20;99.90;;;;;;5128913;28;20408;-85
2022/01/05 06:12:13;;;;;;;5.07;1.30;;;25.90;99.90;;;;;;5128844;28;20828;-80
2022/01/05 06:14:40;;;;;;;3.50;1.20;;;25.70;99.90;;;;;;5129063;28;20460;-78
2022/01/05 06:17:07;;;;;;;5.60;1.40;;;25.60;99.90;;;;;;5128791;28;20378;-80
2022/01/05 06:19:34;;;;;;;3.40;1.30;;;25.60;99.90;;;;;;5128838;28;20372;-81
2022/01/05 06:22:01;;;;;;;5.35;1.50;;;25.60;99.90;;;;;;5128679;28;20449;-82
2022/01/05 06:24:28;;;;;;;3.63;1.20;;;25.60;99.90;;;;;;5128534;28;20379;-77
2022/01/05 06:26:55;;;;;;;4.65;1.30;;;25.60;99.90;;;;;;5128726;28;20457;-83
2022/01/05 06:29:22;;;;;;;5.60;1.35;;;25.80;99.90;;;;;;5128917;28;20394;-80
2022/01/05 06:31:49;;;;;;;7.38;1.40;;;25.90;99.90;;;;;;5128853;28;20364;-79
2022/01/05 06:34:16;;;;;;;6.22;1.50;;;26.10;99.90;;;;;;5128755;28;20500;-82
2022/01/05 06:36:43;;;;;;;4.90;1.50;;;26.20;99.90;;;;;;5128676;28;20365;-84
2022/01/05 06:39:11;;;;;;;4.45;1.70;;;26.20;99.90;;;;;;5128533;28;20380;-84
2022/01/05 06:41:39;;;;;;;6.90;1.70;;;26.20;99.90;;;;;;5128225;28;20924;-81
2022/01/05 06:44:08;;;;;;;6.72;2.20;;;26.10;99.90;;;;;;5128719;28;20407;-77
2022/01/05 06:46:35;;;;;;;6.40;2.00;;;25.90;99.90;;;;;;5128567;28;20441;-81
2022/01/05 06:49:02;;;;;;;7.60;2.13;;;25.90;99.90;;;;;;5128400;28;20400;-82
2022/01/05 06:51:29;;;;;;;7.53;2.10;;;25.90;99.90;;;;;;5128640;28;20365;-83
2022/01/05 06:53:56;;;;;;;7.38;2.20;;;25.80;99.90;;;;;;5128523;28;20373;-83
2022/01/05 06:56:23;;;;;;;7.45;1.90;;;25.80;99.90;;;;;;5128613;28;20722;-81
2022/01/05 06:58:50;;;;;;;6.93;2.10;;;25.80;99.90;;;;;;5129293;28;20373;-80
2022/01/05 07:01:17;;;;;;;9.97;2.40;;;25.90;99.90;;;;;;5128890;28;20368;-79
2022/01/05 07:03:44;;;;;;;10.38;2.45;;;25.90;99.90;;;;;;5128484;28;20424;-82
2022/01/05 07:06:11;;;;;;;7.47;2.17;;;25.90;99.90;;;;;;5128465;28;20711;-80
2022/01/05 07:08:39;;;;;;;8.68;2.28;;;26.00;99.90;;;;;;5127840;28;20468;-82
2022/01/05 07:11:07;;;;;;;10.00;2.50;;;26.50;99.90;;;;;;5128186;28;20365;-83
2022/01/05 07:13:33;;;;;;;7.28;2.10;;;27.10;99.90;;;;;;5129480;27;20368;-79
2022/01/05 07:16:00;;;;;;;10.45;2.53;;;27.90;99.90;;;;;;5132034;27;20373;-84
2022/01/05 07:18:27;;;;;;;8.55;2.10;;;28.70;99.90;;;;;;5114324;27;20369;-83
2022/01/05 07:20:54;;;;;;;8.32;2.38;;;29.40;99.90;;;;;;5113983;27;20377;-83
2022/01/05 07:23:21;;;;;;;9.15;2.50;;;29.80;99.90;;;;;;5132873;27;20369;-82
2022/01/05 07:25:48;;;;;;;8.52;2.38;;;29.70;99.90;;;;;;5131955;27;20795;-77
2022/01/05 07:28:15;;;;;;;10.27;2.50;;;29.50;99.90;;;;;;5132096;27;20441;-82
2022/01/05 07:30:42;;;;;;;9.05;2.40;;;29.00;99.90;;;;;;5131906;27;20385;-84
2022/01/05 07:33:09;;;;;;;7.53;2.40;;;28.40;99.90;;;;;;5132142;27;20364;-86
2022/01/05 07:35:36;;;;;;;11.15;2.60;;;27.80;99.90;;;;;;5131911;27;20924;-85
2022/01/05 07:38:03;;;;;;;7.63;2.35;;;27.20;99.90;;;;;;5131909;27;20402;-81
2022/01/05 07:40:31;;;;;;;9.50;2.33;;;26.60;99.90;;;;;;5131627;27;20395;-82
2022/01/05 07:42:58;;;;;;;9.13;2.25;;;26.20;99.90;;;;;;5132279;27;20377;-80
2022/01/05 07:45:25;;;;;;;7.00;2.10;;;25.90;99.90;;;;;;5113180;27;20413;-85
2022/01/05 07:47:52;;;;;;;9.55;2.30;;;25.80;99.90;;;;;;5131489;27;20369;-82
2022/01/05 07:50:19;;;;;;;10.10;2.60;;;25.70;99.90;;;;;;5131727;27;20377;-84
2022/01/05 07:52:46;;;;;;;9.52;2.78;;;25.60;99.90;;;;;;5131521;27;20382;-80
2022/01/05 07:55:14;;;;;;;11.82;2.90;;;25.40;99.90;;;;;;5131392;27;20456;-83
2022/01/05 07:57:41;;;;;;;11.85;2.53;;;25.30;99.90;;;;;;5131509;27;20376;-79
2022/01/05 08:00:08;;;;;;;12.23;2.90;;;25.20;99.90;;;;;;5131502;27;20850;-77
2022/01/05 08:02:35;;;;;;;10.60;2.67;;;25.10;99.90;;;;;;5131531;27;20364;-83
2022/01/05 08:05:03;;;;;;;11.70;3.13;;;25.10;99.90;;;;;;5131447;27;20400;-82
2022/01/05 08:07:30;;;;;;;15.45;3.38;;;25.00;99.90;;;;;;5131233;27;20369;-82
2022/01/05 08:09:57;;;;;;;18.87;3.97;;;25.00;99.90;;;;;;5131258;27;20397;-82
2022/01/05 08:12:24;;;;;;;18.17;3.95;;;24.90;99.90;;;;;;5131816;27;20393;-82
2022/01/05 08:14:51;;;;;;;18.85;4.10;;;24.80;99.90;;;;;;5130887;27;20372;-85
2022/01/05 08:17:18;;;;;;;17.07;4.20;;;24.80;99.90;;;;;;5131061;27;20377;-81
2022/01/05 08:19:45;;;;;;;19.42;4.38;;;24.80;99.90;;;;;;5130887;27;20373;-79
2022/01/05 08:22:12;;;;;;;18.33;4.13;;;24.90;99.90;;;;;;5131038;27;20377;-85
2022/01/05 08:24:39;;;;;;;21.50;4.27;;;25.00;99.90;;;;;;5130292;27;20457;-78
2022/01/05 08:27:07;;;;;;;17.07;4.10;;;25.00;99.90;;;;;;5130802;27;20369;-83
2022/01/05 08:29:34;;;;;;;20.20;4.55;;;25.00;99.90;;;;;;5130717;27;20442;-77
2022/01/05 08:32:02;;;;;;;20.17;4.60;;;25.00;99.90;;;;;;5130670;27;20483;-83
2022/01/05 08:34:30;;;;;;;19.02;4.20;;;25.00;99.90;;;;;;5130467;27;20372;-81
2022/01/05 08:36:58;;;;;;;22.27;4.97;;;24.90;99.90;;;;;;5131262;27;20369;-82
2022/01/05 08:39:25;;;;;;;21.08;4.57;;;24.90;99.90;;;;;;5130599;27;20380;-86
2022/01/05 08:41:52;;;;;;;21.83;4.45;;;24.90;99.90;;;;;;5130495;27;20396;-82
2022/01/05 08:44:19;;;;;;;19.83;4.47;;;24.80;99.90;;;;;;5130385;27;20376;-79
2022/01/05 08:46:46;;;;;;;23.05;4.80;;;24.80;99.90;;;;;;5130456;27;20373;-83
2022/01/05 08:49:15;;;;;;;23.58;4.93;;;24.80;99.90;;;;;;5130422;27;20876;-82
2022/01/05 08:51:43;;;;;;;28.00;5.05;;;24.70;99.90;;;;;;5130341;27;20523;-80
2022/01/05 08:54:11;;;;;;;22.60;4.93;;;24.70;99.90;;;;;;5130358;27;20510;-78
2022/01/05 08:56:38;;;;;;;24.20;5.13;;;24.60;99.90;;;;;;5130181;27;20437;-81
2022/01/05 08:59:05;;;;;;;23.80;5.13;;;24.60;99.90;;;;;;5130285;27;20389;-82
2022/01/05 09:01:32;;;;;;;24.33;5.00;;;24.60;99.90;;;;;;5130121;27;20384;-84
2022/01/05 09:03:59;;;;;;;23.73;4.90;;;24.50;99.90;;;;;;5130298;27;20379;-82
2022/01/05 09:06:26;;;;;;;22.13;5.53;;;24.50;99.90;;;;;;5130039;27;20357;-79
2022/01/05 09:08:53;;;;;;;21.87;4.97;;;24.40;99.90;;;;;;5129810;27;20392;-81
2022/01/05 09:11:20;;;;;;;24.08;5.10;;;24.40;99.90;;;;;;5129821;27;20421;-75
2022/01/05 09:13:47;;;;;;;28.90;5.30;;;24.40;99.90;;;;;;5129898;27;20443;-83
2022/01/05 09:16:14;;;;;;;23.33;5.43;;;24.30;99.90;;;;;;5111264;27;20380;-82
2022/01/05 09:18:41;;;;;;;27.23;5.30;;;24.30;99.90;;;;;;5129702;27;20405;-77
2022/01/05 09:21:09;;;;;;;24.90;5.45;;;24.20;99.90;;;;;;5129412;27;20365;-77
2022/01/05 09:23:36;;;;;;;21.67;5.10;;;24.20;99.90;;;;;;5129632;27;20373;-79
2022/01/05 09:26:03;;;;;;;25.92;5.38;;;24.10;99.90;;;;;;5130382;27;20400;-77
2022/01/05 09:28:30;;;;;;;22.88;4.93;;;24.10;99.90;;;;;;5129486;27;20393;-80
2022/01/05 09:30:57;;;;;;;27.08;5.22;;;24.00;99.90;;;;;;5129608;27;20450;-79
2022/01/05 09:33:24;;;;;;;27.25;5.40;;;24.10;99.90;;;;;;5129712;27;20373;-77
2022/01/05 09:36:01;;;;;;;22.88;5.07;;;24.00;99.90;;;;;;5129371;27;20377;-82
2022/01/05 09:41:56;;;;;;;25.85;4.97;;;24.00;99.90;;;;;;5129204;27;20369;-83
2022/01/05 09:44:12;;;;;;;23.88;5.57;;;24.00;99.90;;;;;;5130303;27;20369;-83
2022/01/05 09:47:06;;;;;;;23.02;5.30;;;23.90;99.90;;;;;;5130205;27;20365;-79
2022/01/05 09:49:57;;;;;;;27.95;5.35;;;23.90;99.90;;;;;;5129625;27;20396;-82
2022/01/05 09:52:25;;;;;;;23.38;5.13;;;23.90;99.90;;;;;;5115933;27;20421;-77
2022/01/05 09:54:53;;;;;;;26.88;5.65;;;23.80;99.90;;;;;;5129664;27;20481;-80
2022/01/05 09:57:21;;;;;;;22.20;5.10;;;23.80;99.90;;;;;;5110786;28;20448;-84
2022/01/05 09:59:49;;;;;;;29.50;5.70;;;23.70;99.90;;;;;;5129230;27;20419;-82
2022/01/05 10:02:17;;;;;;;26.10;5.60;;;23.70;99.90;;;;;;5129189;27;20365;-85
2022/01/05 10:04:47;;;;;;;26.65;5.82;;;23.60;99.90;;;;;;5128775;27;20714;-80
2022/01/05 10:07:15;;;;;;;28.20;5.70;;;23.60;99.90;;;;;;5129247;27;20746;-80
2022/01/05 10:09:44;;;;;;;28.33;5.30;;;23.60;99.90;;;;;;5129424;28;20404;-82
2022/01/05 10:12:13;;;;;;;29.50;6.07;;;23.60;99.90;;;;;;5128837;28;20358;-83
2022/01/05 10:14:46;;;;;;;27.63;5.77;;;23.60;99.90;;;;;;5128997;28;20365;-80
2022/01/05 10:17:16;;;;;;;30.95;5.97;;;23.60;99.90;;;;;;5128866;28;20382;-83
2022/01/05 10:19:44;;;;;;;29.80;5.88;;;23.50;99.90;;;;;;5128797;28;20486;-83
2022/01/05 10:22:34;;;;;;;26.43;5.53;;;23.50;99.90;;;;;;5128818;28;20427;-82
2022/01/05 10:25:05;;;;;;;27.85;5.88;;;23.40;99.90;;;;;;5128731;28;20762;-81
2022/01/05 10:27:33;;;;;;;31.58;6.28;;;23.40;99.90;;;;;;5129124;28;20436;-82
2022/01/05 10:30:00;;;;;;;31.13;6.20;;;23.40;99.90;;;;;;5128597;28;20399;-81
2022/01/05 10:32:30;;;;;;;30.10;6.07;;;23.40;99.90;;;;;;5128797;28;20426;-82
2022/01/05 10:35:08;;;;;;;31.20;6.13;;;23.40;99.90;;;;;;5128712;28;20376;-82
2022/01/05 10:37:36;;;;;;;30.20;5.67;;;23.40;99.90;;;;;;5110519;28;20369;-82
2022/01/05 10:40:19;;;;;;;31.00;5.80;;;23.40;99.90;;;;;;5110982;28;20368;-82
2022/01/05 10:42:49;;;;;;;29.02;5.85;;;23.40;99.90;;;;;;5128590;28;20380;-77
2022/01/05 10:45:22;;;;;;;29.08;6.15;;;23.40;99.90;;;;;;5129435;28;20803;-82
2022/01/05 10:48:12;;;;;;;30.45;6.38;;;23.40;99.90;;;;;;5128872;27;20380;-83
2022/01/05 10:50:40;;;;;;;30.77;6.00;;;23.40;99.90;;;;;;5114565;27;20373;-83
2022/01/05 10:53:10;;;;;;;28.05;6.20;;;23.40;99.90;;;;;;5132881;27;20428;-84
2022/01/05 10:55:43;;;;;;;31.02;6.18;;;23.30;99.90;;;;;;5132624;27;20864;-83
2022/01/05 10:58:15;;;;;;;27.83;5.85;;;23.30;99.90;;;;;;5114334;27;20385;-83
2022/01/05 11:00:45;;;;;;;29.20;5.82;;;23.30;99.90;;;;;;5114730;27;20381;-84
2022/01/05 11:03:31;;;;;;;28.60;5.70;;;23.30;99.90;;;;;;5132783;27;20369;-81
2022/01/05 11:06:15;;;;;;;29.58;5.90;;;23.20;99.90;;;;;;5132508;27;20376;-83
2022/01/05 11:09:00;;;;;;;30.23;6.00;;;23.30;99.90;;;;;;5114457;27;20491;-82
2022/01/05 11:11:47;;;;;;;33.45;6.50;;;23.20;99.90;;;;;;5132456;27;20356;-82
2022/01/05 11:14:20;;;;;;;27.40;6.25;;;23.20;99.90;;;;;;5132357;27;20377;-82
2022/01/05 11:16:51;;;;;;;29.67;6.07;;;23.20;99.90;;;;;;5114387;27;20361;-82
2022/01/05 11:19:19;;;;;;;32.40;6.35;;;23.10;99.90;;;;;;5132502;27;20414;-83
2022/01/05 11:22:17;;;;;;;28.25;6.05;;;23.10;99.90;;;;;;5132415;27;20450;-82
2022/01/05 11:24:52;;;;;;;27.10;6.07;;;23.10;99.90;;;;;;5132153;27;20452;-83
2022/01/05 11:27:25;;;;;;;26.27;5.57;;;23.10;99.90;;;;;;5132091;27;20860;-83
2022/01/05 11:29:53;;;;;;;27.48;6.05;;;23.10;99.90;;;;;;5113690;27;20396;-82
2022/01/05 11:32:24;;;;;;;28.45;5.72;;;23.10;99.90;;;;;;5113897;27;20766;-86
2022/01/05 11:34:52;;;;;;;26.77;5.63;;;23.10;99.90;;;;;;5132159;27;20438;-87
2022/01/05 11:37:20;;;;;;;29.70;5.85;;;23.10;99.90;;;;;;5113808;27;20401;-82
2022/01/05 11:39:53;;;;;;;27.23;5.53;;;23.10;99.90;;;;;;5131711;27;20380;-83
2022/01/05 11:42:37;;;;;;;28.67;5.50;;;23.10;99.90;;;;;;5131734;27;20357;-82
2022/01/05 11:45:07;;;;;;;24.97;5.57;;;23.10;99.90;;;;;;5131732;27;20878;-82
2022/01/05 11:47:39;;;;;;;28.75;5.70;;;23.10;99.90;;;;;;5131907;27;20365;-80
2022/01/05 11:50:15;;;;;;;27.67;5.65;;;23.10;99.90;;;;;;5131548;27;20389;-83
2022/01/05 11:53:00;;;;;;;28.48;6.20;;;23.10;99.90;;;;;;5131550;27;20362;-83
2022/01/05 11:55:33;;;;;;;25.08;5.35;;;23.10;99.90;;;;;;5131475;27;20431;-83
2022/01/05 11:58:19;;;;;;;25.83;5.60;;;23.10;99.90;;;;;;5131940;27;20361;-84
2022/01/05 12:01:07;;;;;;;27.50;5.80;;;23.20;99.90;;;;;;5130547;27;20426;-84
2022/01/05 12:03:57;;;;;;;28.70;5.70;;;23.20;99.90;;;;;;5131348;27;20918;-82
2022/01/05 12:06:32;;;;;;;25.90;5.97;;;23.20;99.90;;;;;;5123664;27;20468;-82
2022/01/05 12:09:22;;;;;;;24.80;5.50;;;23.30;99.90;;;;;;5131697;27;20732;-79
2022/01/05 12:11:49;;;;;;;30.57;6.00;;;23.20;99.90;;;;;;5131235;27;20353;-83
2022/01/05 12:14:22;;;;;;;27.80;5.90;;;23.30;99.90;;;;;;5131262;27;20380;-83
2022/01/05 12:17:11;;;;;;;29.95;6.65;;;23.20;99.90;;;;;;5131131;27;20732;-82
2022/01/05 12:19:56;;;;;;;33.00;6.20;;;23.20;99.90;;;;;;5130945;27;20369;-84
2022/01/05 12:22:28;;;;;;;30.93;6.20;;;23.10;99.90;;;;;;5131660;27;20414;-88
2022/01/05 12:25:03;;;;;;;39.03;7.30;;;23.00;99.90;;;;;;5130850;27;20354;-88
2022/01/05 12:27:49;;;;;;;34.38;6.72;;;22.90;99.90;;;;;;5130933;27;20464;-88
2022/01/05 12:30:19;;;;;;;34.30;6.35;;;22.80;99.90;;;;;;5130905;27;20476;-86
2022/01/05 12:32:48;;;;;;;32.23;6.03;;;22.70;99.90;;;;;;5131475;27;20387;-87
2022/01/05 12:35:19;;;;;;;35.53;6.35;;;22.70;99.90;;;;;;5130898;27;20463;-84
2022/01/05 12:38:07;;;;;;;34.67;6.35;;;22.70;99.90;;;;;;5130866;27;20364;-87
2022/01/05 12:40:42;;;;;;;37.15;6.20;;;22.80;99.90;;;;;;5130507;27;20385;-88
2022/01/05 12:43:09;;;;;;;33.03;6.55;;;22.70;99.90;;;;;;5130805;27;20452;-84
2022/01/05 12:45:51;;;;;;;32.30;6.05;;;22.70;99.90;;;;;;5130659;27;20419;-87
2022/01/05 12:48:36;;;;;;;32.15;6.07;;;22.70;99.90;;;;;;5130344;27;20400;-88
2022/01/05 12:51:38;;;;;;;35.47;6.43;;;22.70;99.90;;;;;;5130610;27;20361;-87
2022/01/05 12:54:25;;;;;;;32.15;6.03;;;22.80;99.90;;;;;;5130463;27;20376;-86
2022/01/05 12:57:00;;;;;;;29.77;6.03;;;22.70;99.90;;;;;;5130225;27;20794;-88